createdAt,value
2019-04-30T00:01:07.507Z,32.20
2019-04-30T00:03:55.846Z,14.20
2019-04-30T00:06:27.427Z,35.60
2019-04-30T00:08:55.090Z,25.40
2019-04-30T00:11:25.974Z,25.60
2019-04-30T00:13:58.809Z,27.60
2019-04-30T00:16:30.983Z,28.40
2019-04-30T00:19:00.944Z,27.40
2019-04-30T00:21:30.387Z,35.20
2019-04-30T00:24:00.866Z,30.00
2019-04-30T00:26:32.023Z,29.40
2019-04-30T00:29:01.802Z,38.20
2019-04-30T00:31:31.854Z,30.60
2019-04-30T00:34:01.738Z,31.60
2019-04-30T00:36:34.130Z,38.60
2019-04-30T00:39:09.028Z,33.40
2019-04-30T00:41:35.351Z,35.60
2019-04-30T00:44:05.587Z,41.20
2019-04-30T00:46:36.420Z,35.40
2019-04-30T00:49:09.807Z,36.60
2019-04-30T00:51:37.586Z,31.20
2019-04-30T00:54:07.280Z,40.20
2019-04-30T00:56:37.028Z,39.00
2019-04-30T00:59:10.459Z,37.60
2019-04-30T01:02:08.400Z,38.00
2019-04-30T01:04:44.989Z,40.60
2019-04-30T01:07:15.645Z,34.40
2019-04-30T01:09:49.449Z,37.60
2019-04-30T01:12:27.532Z,35.20
2019-04-30T01:14:49.751Z,37.80
2019-04-30T01:17:19.511Z,28.40
2019-04-30T01:19:51.131Z,32.00
2019-04-30T01:22:27.883Z,31.00
2019-04-30T01:24:52.839Z,43.40
2019-04-30T01:27:22.532Z,30.60
2019-04-30T01:29:52.453Z,42.00
2019-04-30T01:32:22.550Z,42.60
2019-04-30T01:34:53.768Z,35.00
2019-04-30T01:37:28.348Z,21.80
2019-04-30T01:39:55.228Z,37.80
2019-04-30T01:42:25.536Z,32.40
2019-04-30T01:44:55.284Z,30.40
2019-04-30T01:47:27.639Z,32.80
2019-04-30T01:50:01.040Z,35.20
2019-04-30T01:52:49.223Z,36.80
2019-04-30T01:55:19.901Z,39.40
2019-04-30T01:58:00.783Z,40.00
2019-04-30T02:00:41.142Z,29.20
2019-04-30T02:03:11.198Z,43.00
2019-04-30T02:05:41.109Z,35.20
2019-04-30T02:08:10.856Z,35.20
2019-04-30T02:10:40.969Z,28.80
2019-04-30T02:13:10.770Z,41.80
2019-04-30T02:15:40.830Z,41.80
2019-04-30T02:18:10.892Z,37.40
2019-04-30T02:20:40.995Z,30.40
2019-04-30T02:23:11.138Z,48.20
2019-04-30T02:25:41.067Z,44.80
2019-04-30T02:28:11.048Z,37.60
2019-04-30T02:30:41.095Z,33.80
2019-04-30T02:33:11.046Z,36.60
2019-04-30T02:36:03.275Z,33.00
2019-04-30T02:38:32.583Z,39.60
2019-04-30T02:41:02.518Z,41.00
2019-04-30T02:43:33.213Z,44.20
2019-04-30T02:46:03.914Z,33.60
2019-04-30T02:48:33.894Z,36.80
2019-04-30T02:51:03.803Z,41.40
2019-04-30T02:54:05.115Z,45.20
2019-04-30T02:56:35.149Z,42.60
2019-04-30T02:59:05.267Z,34.20
2019-04-30T03:01:35.434Z,38.20
2019-04-30T03:04:05.331Z,37.40
2019-04-30T03:06:35.317Z,39.20
2019-04-30T03:09:06.717Z,34.00
2019-04-30T03:11:36.753Z,42.60
2019-04-30T03:14:06.811Z,44.80
2019-04-30T03:16:52.325Z,34.60
2019-04-30T03:19:29.520Z,46.20
2019-04-30T03:22:12.058Z,39.80
2019-04-30T03:24:42.782Z,35.80
2019-04-30T03:27:13.051Z,36.60
2019-04-30T03:29:43.003Z,38.60
2019-04-30T03:32:14.296Z,37.80
2019-04-30T03:34:44.307Z,28.60
2019-04-30T03:37:14.271Z,42.20
2019-04-30T03:39:44.369Z,39.80
2019-04-30T03:42:14.101Z,36.00
2019-04-30T03:44:44.603Z,48.00
2019-04-30T03:47:14.515Z,42.20
2019-04-30T03:49:44.315Z,38.20
2019-04-30T03:52:14.226Z,26.40
2019-04-30T03:54:44.141Z,44.80
2019-04-30T03:57:13.981Z,45.20
2019-04-30T03:59:44.063Z,39.80
2019-04-30T04:02:30.062Z,39.60
2019-04-30T04:05:12.300Z,42.00
2019-04-30T04:08:10.450Z,33.80
2019-04-30T04:10:53.541Z,36.80
2019-04-30T04:13:23.735Z,39.20
2019-04-30T04:15:54.704Z,31.40
2019-04-30T04:18:24.503Z,36.60
2019-04-30T04:21:07.691Z,29.20
2019-04-30T04:23:26.306Z,27.40
2019-04-30T04:25:56.193Z,42.40
2019-04-30T04:28:26.013Z,29.60
2019-04-30T04:30:55.864Z,32.20
2019-04-30T04:33:25.906Z,38.20
2019-04-30T04:35:56.208Z,39.80
2019-04-30T04:38:26.029Z,36.80
2019-04-30T04:40:55.861Z,29.80
2019-04-30T04:43:25.818Z,31.40
2019-04-30T04:45:55.773Z,42.60
2019-04-30T04:48:25.784Z,34.20
2019-04-30T04:50:55.818Z,27.80
2019-04-30T04:53:25.738Z,34.40
2019-04-30T04:55:55.775Z,33.80
2019-04-30T04:58:25.593Z,39.60
2019-04-30T05:00:55.679Z,38.60
2019-04-30T05:03:30.490Z,34.80
2019-04-30T05:06:02.662Z,35.60
2019-04-30T05:08:31.718Z,37.20
2019-04-30T05:11:03.117Z,34.80
2019-04-30T05:13:34.718Z,31.60
2019-04-30T05:16:09.229Z,31.60
2019-04-30T05:18:39.244Z,36.00
2019-04-30T05:21:08.985Z,39.00
2019-04-30T05:23:41.054Z,38.20
2019-04-30T05:26:11.074Z,41.20
2019-04-30T05:28:41.310Z,30.80
2019-04-30T05:31:11.508Z,42.60
2019-04-30T05:33:41.800Z,31.80
2019-04-30T05:36:11.513Z,37.00
2019-04-30T05:38:46.313Z,17.60
2019-04-30T05:41:17.009Z,38.40
2019-04-30T05:43:48.845Z,36.80
2019-04-30T05:46:19.587Z,38.00
2019-04-30T05:48:49.632Z,34.60
2019-04-30T05:51:21.292Z,25.20
2019-04-30T05:53:51.811Z,31.60
2019-04-30T05:56:23.416Z,41.00
2019-04-30T05:58:53.377Z,34.00
2019-04-30T06:01:24.327Z,34.20
2019-04-30T06:03:54.448Z,29.80
2019-04-30T06:06:24.350Z,31.80
2019-04-30T06:09:06.717Z,24.60
2019-04-30T06:12:08.859Z,31.00
2019-04-30T06:14:51.589Z,30.80
2019-04-30T06:17:20.622Z,36.40
2019-04-30T06:19:51.556Z,29.20
2019-04-30T06:22:21.777Z,36.20
2019-04-30T06:24:52.035Z,30.80
2019-04-30T06:27:21.796Z,31.80
2019-04-30T06:29:52.503Z,25.40
2019-04-30T06:32:22.405Z,13.20
2019-04-30T06:34:52.598Z,36.20
2019-04-30T06:37:22.886Z,36.80
2019-04-30T06:39:52.775Z,36.20
2019-04-30T06:42:29.236Z,34.80
2019-04-30T06:44:59.112Z,33.40
2019-04-30T06:47:33.058Z,29.80
2019-04-30T06:50:01.361Z,20.80
2019-04-30T06:52:31.528Z,33.60
2019-04-30T06:55:01.385Z,22.40
2019-04-30T06:57:32.114Z,24.80
2019-04-30T07:00:02.031Z,37.20
2019-04-30T07:02:32.183Z,24.00
2019-04-30T07:05:02.059Z,26.20
2019-04-30T07:07:39.041Z,35.00
2019-04-30T07:10:26.318Z,27.40
2019-04-30T07:13:11.588Z,34.20
2019-04-30T07:15:41.666Z,24.80
2019-04-30T07:18:11.853Z,28.80
2019-04-30T07:20:41.652Z,25.00
2019-04-30T07:23:12.068Z,22.00
2019-04-30T07:25:41.978Z,34.20
2019-04-30T07:28:11.944Z,30.00
2019-04-30T07:30:41.866Z,36.20
2019-04-30T07:33:11.527Z,34.00
2019-04-30T07:35:43.230Z,31.00
2019-04-30T07:38:13.083Z,36.00
2019-04-30T07:40:42.912Z,36.60
2019-04-30T07:43:13.700Z,34.80
2019-04-30T07:45:43.470Z,25.80
2019-04-30T07:48:13.112Z,30.00
2019-04-30T07:50:43.900Z,24.60
2019-04-30T07:53:14.399Z,25.20
2019-04-30T07:55:44.312Z,32.80
2019-04-30T07:58:14.199Z,29.00
2019-04-30T08:00:44.137Z,33.40
2019-04-30T08:03:36.410Z,18.60
2019-04-30T08:06:09.727Z,24.40
2019-04-30T08:08:40.963Z,34.60
2019-04-30T08:11:22.769Z,28.40
2019-04-30T08:13:42.644Z,19.80
2019-04-30T08:16:13.087Z,31.80
2019-04-30T08:18:43.435Z,27.40
2019-04-30T08:21:14.050Z,34.40
2019-04-30T08:23:44.062Z,28.00
2019-04-30T08:26:14.050Z,25.00
2019-04-30T08:28:43.981Z,26.80
2019-04-30T08:31:19.653Z,29.40
2019-04-30T08:33:50.061Z,30.60
2019-04-30T08:36:19.815Z,35.20
2019-04-30T08:38:49.688Z,36.00
2019-04-30T08:41:19.542Z,32.00
2019-04-30T08:43:49.786Z,21.00
2019-04-30T08:46:19.865Z,19.00
2019-04-30T08:48:51.776Z,28.80
2019-04-30T08:51:21.039Z,26.60
2019-04-30T08:53:50.929Z,24.80
2019-04-30T08:56:21.998Z,27.40
2019-04-30T08:58:54.798Z,30.80
2019-04-30T09:01:23.608Z,29.20
2019-04-30T09:03:54.145Z,27.60
2019-04-30T09:06:28.719Z,26.80
2019-04-30T09:09:01.133Z,34.00
2019-04-30T09:11:42.909Z,25.00
2019-04-30T09:14:03.582Z,24.60
2019-04-30T09:16:40.919Z,28.80
2019-04-30T09:19:16.337Z,24.60
2019-04-30T09:21:48.747Z,27.80
2019-04-30T09:24:19.213Z,27.40
2019-04-30T09:26:49.622Z,24.60
2019-04-30T09:29:20.177Z,31.60
2019-04-30T09:31:51.180Z,29.60
2019-04-30T09:34:21.301Z,30.00
2019-04-30T09:36:51.559Z,23.00
2019-04-30T09:39:23.123Z,20.80
2019-04-30T09:41:53.356Z,29.20
2019-04-30T09:44:23.089Z,28.60
2019-04-30T09:46:52.935Z,28.80
2019-04-30T09:49:23.036Z,27.60
2019-04-30T09:51:52.777Z,24.40
2019-04-30T09:54:23.222Z,23.60
2019-04-30T09:56:53.547Z,26.00
2019-04-30T09:59:23.469Z,21.00
2019-04-30T10:01:53.125Z,29.60
2019-04-30T10:04:25.566Z,32.40
2019-04-30T10:06:55.797Z,25.20
2019-04-30T10:09:25.603Z,24.20
2019-04-30T10:12:02.253Z,24.00
2019-04-30T10:14:32.453Z,19.20
2019-04-30T10:17:14.276Z,30.80
2019-04-30T10:19:44.119Z,24.60
2019-04-30T10:22:14.782Z,30.00
2019-04-30T10:24:44.671Z,22.60
2019-04-30T10:27:14.378Z,17.20
2019-04-30T10:29:44.114Z,23.60
2019-04-30T10:32:14.156Z,27.00
2019-04-30T10:34:43.779Z,14.80
2019-04-30T10:37:14.618Z,20.00
2019-04-30T10:39:48.794Z,23.80
2019-04-30T10:42:17.791Z,26.60
2019-04-30T10:44:47.766Z,27.80
2019-04-30T10:47:19.181Z,22.40
2019-04-30T10:49:50.100Z,22.40
2019-04-30T10:52:19.775Z,22.00
2019-04-30T10:54:49.707Z,21.40
2019-04-30T10:57:19.464Z,19.00
2019-04-30T10:59:49.201Z,23.20
2019-04-30T11:02:19.243Z,13.80
2019-04-30T11:04:52.061Z,24.40
2019-04-30T11:07:22.034Z,28.40
2019-04-30T11:09:51.844Z,24.80
2019-04-30T11:12:21.739Z,21.60
2019-04-30T11:14:51.549Z,22.40
2019-04-30T11:17:21.761Z,21.80
2019-04-30T11:19:52.323Z,18.20
2019-04-30T11:22:22.300Z,20.20
2019-04-30T11:24:59.022Z,21.60
2019-04-30T11:27:23.926Z,18.40
2019-04-30T11:30:00.635Z,26.80
2019-04-30T11:32:28.224Z,22.00
2019-04-30T11:34:58.105Z,27.40
2019-04-30T11:37:28.148Z,24.80
2019-04-30T11:39:57.724Z,21.60
2019-04-30T11:42:27.534Z,23.60
2019-04-30T11:44:58.681Z,18.00
2019-04-30T11:47:53.617Z,20.20
2019-04-30T11:50:19.618Z,15.00
2019-04-30T11:52:49.335Z,20.00
2019-04-30T11:55:19.594Z,15.40
2019-04-30T11:57:49.563Z,18.20
2019-04-30T12:00:29.679Z,16.80
2019-04-30T12:02:59.490Z,23.40
2019-04-30T12:05:29.246Z,29.60
2019-04-30T12:08:26.637Z,30.80
2019-04-30T12:11:18.477Z,36.60
2019-04-30T12:13:48.873Z,30.40
2019-04-30T12:16:18.656Z,33.40
2019-04-30T12:18:49.820Z,25.80
2019-04-30T12:21:19.651Z,21.80
2019-04-30T12:23:49.487Z,21.00
2019-04-30T12:26:19.450Z,21.60
2019-04-30T12:28:49.135Z,20.60
2019-04-30T12:31:19.330Z,15.60
2019-04-30T12:33:52.740Z,20.20
2019-04-30T12:36:22.851Z,30.80
2019-04-30T12:38:53.159Z,27.40
2019-04-30T12:41:23.251Z,27.00
2019-04-30T12:43:53.104Z,27.20
2019-04-30T12:46:23.215Z,23.60
2019-04-30T12:49:11.767Z,23.20
2019-04-30T12:51:52.131Z,23.60
2019-04-30T12:54:41.127Z,21.20
2019-04-30T12:57:29.686Z,18.00
2019-04-30T13:00:00.504Z,19.00
2019-04-30T13:02:33.385Z,27.00
2019-04-30T13:05:03.313Z,27.80
2019-04-30T13:07:33.749Z,19.40
2019-04-30T13:10:07.977Z,25.60
2019-04-30T13:12:39.094Z,25.00
2019-04-30T13:15:10.269Z,24.40
2019-04-30T13:17:39.904Z,21.60
2019-04-30T13:20:18.574Z,26.80
2019-04-30T13:22:44.178Z,28.00
2019-04-30T13:25:13.132Z,24.20
2019-04-30T13:27:46.610Z,18.00
2019-04-30T13:30:27.016Z,20.60
2019-04-30T13:33:24.465Z,22.60
2019-04-30T13:35:54.311Z,21.80
2019-04-30T13:38:32.119Z,21.00
2019-04-30T13:41:18.735Z,21.00
2019-04-30T13:44:03.792Z,16.20
2019-04-30T13:46:34.040Z,15.40
2019-04-30T13:49:04.559Z,20.00
2019-04-30T13:51:34.441Z,24.40
2019-04-30T13:54:06.961Z,16.00
2019-04-30T13:56:39.734Z,23.20
2019-04-30T13:59:10.428Z,25.00
2019-04-30T14:01:40.962Z,21.80
2019-04-30T14:04:26.130Z,15.60
2019-04-30T14:07:22.355Z,21.80
2019-04-30T14:09:52.544Z,20.60
2019-04-30T14:12:22.243Z,20.40
2019-04-30T14:14:52.275Z,16.00
2019-04-30T14:17:22.343Z,21.80
2019-04-30T14:19:52.033Z,23.00
2019-04-30T14:22:22.004Z,15.00
2019-04-30T14:27:21.736Z,21.80
2019-04-30T14:29:52.141Z,24.80
2019-04-30T14:32:22.041Z,23.60
2019-04-30T14:34:51.595Z,22.20
2019-04-30T14:37:23.720Z,19.20
2019-04-30T14:39:54.532Z,15.50
2019-04-30T14:42:25.603Z,23.80
2019-04-30T14:45:05.976Z,19.60
2019-04-30T14:47:46.443Z,16.40
2019-04-30T14:50:19.784Z,15.80
2019-04-30T14:52:59.648Z,19.80
2019-04-30T14:55:52.829Z,16.80
2019-04-30T14:58:47.092Z,15.60
2019-04-30T15:01:34.778Z,21.60
2019-04-30T15:04:04.663Z,19.60
2019-04-30T15:06:34.352Z,19.60
2019-04-30T15:09:04.728Z,20.80
2019-04-30T15:11:34.362Z,19.60
2019-04-30T15:14:04.688Z,18.80
2019-04-30T15:16:34.389Z,19.60
2019-04-30T15:21:27.205Z,21.60
2019-04-30T15:24:14.913Z,22.40
2019-04-30T15:26:44.567Z,19.60
2019-04-30T15:29:16.136Z,14.00
2019-04-30T15:31:46.058Z,22.20
2019-04-30T15:34:16.116Z,18.40
2019-04-30T15:36:46.145Z,18.60
2019-04-30T15:39:21.683Z,20.80
2019-04-30T15:41:52.139Z,17.20
2019-04-30T15:44:22.042Z,17.00
2019-04-30T15:46:53.328Z,9.60
2019-04-30T15:49:27.602Z,18.60
2019-04-30T15:52:00.083Z,23.40
2019-04-30T15:54:29.905Z,16.20
2019-04-30T15:57:03.287Z,19.40
2019-04-30T15:59:44.068Z,16.60
2019-04-30T16:02:22.357Z,19.80
2019-04-30T16:05:11.225Z,19.80
2019-04-30T16:08:02.817Z,16.20
2019-04-30T16:10:58.538Z,20.60
2019-04-30T16:13:34.004Z,19.80
2019-04-30T16:16:03.887Z,15.60
2019-04-30T16:18:44.060Z,20.20
2019-04-30T16:21:13.768Z,20.20
2019-04-30T16:23:44.089Z,17.60
2019-04-30T16:26:14.365Z,18.20
2019-04-30T16:28:45.925Z,17.20
2019-04-30T16:31:16.105Z,16.00
2019-04-30T16:33:46.074Z,23.00
2019-04-30T16:36:16.017Z,19.40
2019-04-30T16:38:46.041Z,17.20
2019-04-30T16:41:28.485Z,22.20
2019-04-30T16:43:48.836Z,18.60
2019-04-30T16:46:19.332Z,15.00
2019-04-30T16:48:49.406Z,13.00
2019-04-30T16:51:19.351Z,17.60
2019-04-30T16:53:49.420Z,21.60
2019-04-30T16:56:19.251Z,20.00
2019-04-30T16:59:02.607Z,19.20
2019-04-30T17:01:33.572Z,25.20
2019-04-30T17:04:23.073Z,23.40
2019-04-30T17:07:16.567Z,19.40
2019-04-30T17:10:22.042Z,25.80
2019-04-30T17:13:18.906Z,17.40
2019-04-30T17:15:52.076Z,20.60
2019-04-30T17:18:22.820Z,17.60
2019-04-30T17:20:53.004Z,17.60
2019-04-30T17:23:22.805Z,23.00
2019-04-30T17:25:53.166Z,22.80
2019-04-30T17:28:23.323Z,18.60
2019-04-30T17:30:53.126Z,21.00
2019-04-30T17:33:23.050Z,23.20
2019-04-30T17:35:53.364Z,23.60
2019-04-30T17:38:23.095Z,24.40
2019-04-30T17:40:53.330Z,19.40
2019-04-30T17:43:24.484Z,22.80
2019-04-30T17:45:58.888Z,21.20
2019-04-30T17:48:33.263Z,21.20
2019-04-30T17:51:03.361Z,22.20
2019-04-30T17:53:34.690Z,22.40
2019-04-30T17:56:04.729Z,21.00
2019-04-30T17:58:35.715Z,22.00
2019-04-30T18:01:12.148Z,25.20
2019-04-30T18:03:42.132Z,27.20
2019-04-30T18:06:12.086Z,20.00
2019-04-30T18:08:41.963Z,22.00
2019-04-30T18:11:12.338Z,21.60
2019-04-30T18:13:42.408Z,16.80
2019-04-30T18:16:12.237Z,24.00
2019-04-30T18:18:51.055Z,24.00
2019-04-30T18:21:27.104Z,17.60
2019-04-30T18:24:16.845Z,27.60
2019-04-30T18:26:51.117Z,25.80
2019-04-30T18:29:21.445Z,25.20
2019-04-30T18:31:51.673Z,24.80
2019-04-30T18:34:21.701Z,25.20
2019-04-30T18:36:52.457Z,26.20
2019-04-30T18:39:22.937Z,24.80
2019-04-30T18:41:54.499Z,30.40
2019-04-30T18:44:26.161Z,30.80
2019-04-30T18:46:56.432Z,30.20
2019-04-30T18:49:28.699Z,33.60
2019-04-30T18:51:59.866Z,29.60
2019-04-30T18:54:31.391Z,27.20
2019-04-30T18:57:01.480Z,26.00
2019-04-30T18:59:32.724Z,29.80
2019-04-30T19:02:05.117Z,30.00
2019-04-30T19:04:38.942Z,35.60
2019-04-30T19:07:29.686Z,31.40
2019-04-30T19:10:16.714Z,35.60
2019-04-30T19:12:55.996Z,34.80
2019-04-30T19:16:14.958Z,30.80
2019-04-30T19:18:31.793Z,31.80
2019-04-30T19:21:01.756Z,34.40
2019-04-30T19:23:34.698Z,36.00
2019-04-30T19:26:05.859Z,28.20
2019-04-30T19:28:36.060Z,25.60
2019-04-30T19:31:11.705Z,22.80
2019-04-30T19:33:41.107Z,36.00
2019-04-30T19:36:12.657Z,32.20
2019-04-30T19:38:43.153Z,37.00
2019-04-30T19:41:13.257Z,29.80
2019-04-30T19:43:43.333Z,25.00
2019-04-30T19:46:13.347Z,29.60
2019-04-30T19:48:43.684Z,36.40
2019-04-30T19:51:14.461Z,34.20
2019-04-30T19:53:44.191Z,24.00
2019-04-30T19:56:15.147Z,29.00
2019-04-30T19:58:59.133Z,31.20
2019-04-30T20:01:20.754Z,36.00
2019-04-30T20:03:51.695Z,37.00
2019-04-30T20:06:22.112Z,36.00
2019-04-30T20:08:54.664Z,40.00
2019-04-30T20:11:24.398Z,36.00
2019-04-30T20:13:54.411Z,33.20
2019-04-30T20:16:24.382Z,29.40
2019-04-30T20:18:55.904Z,41.00
2019-04-30T20:21:31.865Z,43.40
2019-04-30T20:23:58.078Z,34.20
2019-04-30T20:26:27.808Z,28.80
2019-04-30T20:28:58.967Z,38.20
2019-04-30T20:31:29.531Z,36.60
2019-04-30T20:34:01.465Z,28.00
2019-04-30T20:36:31.418Z,31.20
2019-04-30T20:39:25.739Z,36.60
2019-04-30T20:41:56.271Z,28.20
2019-04-30T20:44:26.393Z,35.60
2019-04-30T20:46:58.969Z,29.60
2019-04-30T20:49:29.130Z,30.20
2019-04-30T20:52:00.307Z,33.20
2019-04-30T20:54:30.117Z,33.40
2019-04-30T20:57:00.256Z,32.60
2019-04-30T20:59:30.455Z,19.80
2019-04-30T21:02:00.813Z,33.40
2019-04-30T21:04:31.522Z,35.60
2019-04-30T21:07:02.154Z,34.60
2019-04-30T21:09:32.411Z,27.80
2019-04-30T21:12:02.631Z,35.60
2019-04-30T21:14:33.366Z,32.20
2019-04-30T21:17:03.619Z,22.80
2019-04-30T21:19:33.531Z,34.20
2019-04-30T21:22:04.410Z,37.80
2019-04-30T21:24:35.153Z,33.00
2019-04-30T21:27:05.516Z,36.00
2019-04-30T21:29:39.144Z,33.20
2019-04-30T21:32:26.566Z,30.00
2019-04-30T21:35:08.125Z,24.00
2019-04-30T21:37:38.157Z,30.00
2019-04-30T21:40:09.727Z,32.80
2019-04-30T21:42:39.791Z,40.80
2019-04-30T21:45:10.101Z,23.40
2019-04-30T21:47:40.458Z,30.60
2019-04-30T21:50:10.269Z,34.40
2019-04-30T21:52:40.352Z,34.60
2019-04-30T21:55:13.073Z,37.80
2019-04-30T21:57:43.413Z,29.60
2019-04-30T22:00:15.936Z,38.20
2019-04-30T22:02:49.954Z,36.60
2019-04-30T22:05:19.066Z,30.80
2019-04-30T22:07:51.154Z,35.80
2019-04-30T22:10:21.212Z,29.60
2019-04-30T22:12:51.396Z,30.80
2019-04-30T22:15:21.706Z,27.20
2019-04-30T22:17:52.137Z,31.40
2019-04-30T22:20:25.420Z,31.00
2019-04-30T22:22:55.636Z,29.60
2019-04-30T22:25:25.995Z,29.00
2019-04-30T22:27:56.232Z,29.80
2019-04-30T22:30:26.039Z,33.20
2019-04-30T22:32:55.944Z,28.00
2019-04-30T22:35:51.214Z,29.20
2019-04-30T22:38:24.917Z,32.20
2019-04-30T22:40:54.758Z,30.80
2019-04-30T22:43:25.126Z,25.60
2019-04-30T22:45:59.674Z,31.00
2019-04-30T22:48:29.733Z,30.80
2019-04-30T22:51:00.229Z,26.00
2019-04-30T22:53:30.187Z,29.80
2019-04-30T22:56:00.241Z,31.00
2019-04-30T22:58:30.325Z,36.40
2019-04-30T23:01:21.893Z,29.20
2019-04-30T23:03:53.898Z,22.00
2019-04-30T23:06:24.140Z,23.80
2019-04-30T23:08:53.848Z,16.60
2019-04-30T23:11:23.777Z,27.00
2019-04-30T23:13:55.151Z,18.40
2019-04-30T23:16:29.263Z,24.20
2019-04-30T23:18:56.687Z,33.20
2019-04-30T23:21:27.310Z,24.40
2019-04-30T23:23:57.476Z,36.40
2019-04-30T23:26:28.006Z,31.00
2019-04-30T23:28:58.128Z,28.00
2019-04-30T23:31:27.960Z,26.60
2019-04-30T23:33:58.157Z,35.80
2019-04-30T23:36:28.556Z,34.00
2019-04-30T23:38:58.480Z,31.40
2019-04-30T23:41:28.358Z,40.80
2019-04-30T23:43:59.068Z,39.80
2019-04-30T23:46:29.141Z,37.20
2019-04-30T23:48:59.144Z,35.00
2019-04-30T23:51:28.894Z,31.80
2019-04-30T23:53:58.616Z,45.20
2019-04-30T23:56:28.694Z,39.20
2019-04-30T23:58:59.171Z,43.80
